Map

Track Data

SID SEASON NUMBER BASIN SUBBASIN NAME ISO_TIME NATURE LAT LON WMO_WIND WMO_PRES WMO_AGENCY TRACK_TYPE DIST2LAND LANDFALL IFLAG USA_AGENCY USA_ATCF_ID USA_LAT USA_LON USA_RECORD USA_STATUS USA_WIND USA_PRES USA_SSHS USA_R34_NE USA_R34_SE USA_R34_SW USA_R34_NW USA_R50_NE USA_R50_SE USA_R50_SW USA_R50_NW USA_R64_NE USA_R64_SE USA_R64_SW USA_R64_NW USA_POCI USA_ROCI USA_RMW USA_EYE TOKYO_LAT TOKYO_LON TOKYO_GRADE TOKYO_WIND TOKYO_PRES TOKYO_R50_DIR TOKYO_R50_LONG TOKYO_R50_SHORT TOKYO_R30_DIR TOKYO_R30_LONG TOKYO_R30_SHORT TOKYO_LAND CMA_LAT CMA_LON CMA_CAT CMA_WIND CMA_PRES HKO_LAT HKO_LON HKO_CAT HKO_WIND HKO_PRES NEWDELHI_LAT NEWDELHI_LON NEWDELHI_GRADE NEWDELHI_WIND NEWDELHI_PRES NEWDELHI_CI NEWDELHI_DP NEWDELHI_POCI REUNION_LAT REUNION_LON REUNION_TYPE REUNION_WIND REUNION_PRES REUNION_TNUM REUNION_CI REUNION_RMW REUNION_R34_NE REUNION_R34_SE REUNION_R34_SW REUNION_R34_NW REUNION_R50_NE REUNION_R50_SE REUNION_R50_SW REUNION_R50_NW REUNION_R64_NE REUNION_R64_SE REUNION_R64_SW REUNION_R64_NW BOM_LAT BOM_LON BOM_TYPE BOM_WIND BOM_PRES BOM_TNUM BOM_CI BOM_RMW BOM_R34_NE BOM_R34_SE BOM_R34_SW BOM_R34_NW BOM_R50_NE BOM_R50_SE BOM_R50_SW BOM_R50_NW BOM_R64_NE BOM_R64_SE BOM_R64_SW BOM_R64_NW BOM_ROCI BOM_POCI BOM_EYE BOM_POS_METHOD BOM_PRES_METHOD NADI_LAT NADI_LON NADI_CAT NADI_WIND NADI_PRES WELLINGTON_LAT WELLINGTON_LON WELLINGTON_WIND WELLINGTON_PRES DS824_LAT DS824_LON DS824_STAGE DS824_WIND DS824_PRES TD9636_LAT TD9636_LON TD9636_STAGE TD9636_WIND TD9636_PRES TD9635_LAT TD9635_LON TD9635_WIND TD9635_PRES TD9635_ROCI NEUMANN_LAT NEUMANN_LON NEUMANN_CLASS NEUMANN_WIND NEUMANN_PRES MLC_LAT MLC_LON MLC_CLASS MLC_WIND MLC_PRES USA_GUST BOM_GUST BOM_GUST_PER REUNION_GUST REUNION_GUST_PER USA_SEAHGT USA_SEARAD_NE USA_SEARAD_SE USA_SEARAD_SW USA_SEARAD_NW STORM_SPEED STORM_DIR
1984277N07151 1984 90 WP MM OGDEN 1984-10-03 00:00:00 NR 7.20000 151.400 main 1110 1110 __________O___ -1 7.20000 151.400 0 2 251
1984277N07151 1984 90 WP MM OGDEN 1984-10-03 03:00:00 NR 7.16404 151.291 main 1110 1098 __________P___ -1 7.16404 151.291 0 2 256
1984277N07151 1984 90 WP MM OGDEN 1984-10-03 06:00:00 NR 7.14577 151.183 main 1098 1098 __________P___ -1 7.14577 151.183 0 2 270
1984277N07151 1984 90 WP MM OGDEN 1984-10-03 09:00:00 NR 7.16291 151.076 main 1109 1109 __________P___ -1 7.16291 151.076 0 2 293
1984277N07151 1984 90 WP MM OGDEN 1984-10-03 12:00:00 NR 7.23316 150.972 main 1109 1109 __________P___ -1 7.23316 150.972 0 3 316
1984277N07151 1984 90 WP MM OGDEN 1984-10-03 15:00:00 NR 7.37424 150.872 main 1131 1129 __________P___ -1 7.37424 150.872 0 4 332
1984277N07151 1984 90 WP MM OGDEN 1984-10-03 18:00:00 NR 7.60388 150.776 main 1150 1150 __________P___ -1 7.60388 150.776 0 6 342
1984277N07151 1984 90 WP MM OGDEN 1984-10-03 21:00:00 NR 7.93987 150.685 main 1178 1178 __________P___ -1 7.93987 150.685 0 8 348
1984277N07151 1984 90 WP MM OGDEN 1984-10-04 00:00:00 NR 8.40000 150.600 main 1229 1229 __________O___ -1 8.40000 150.600 0 11 351
1984277N07151 1984 90 WP MM OGDEN 1984-10-04 03:00:00 NR 8.98898 150.526 main 1290 1290 __________P___ -1 8.98898 150.526 0 13 355
1984277N07151 1984 90 WP MM OGDEN 1984-10-04 06:00:00 NR 9.65914 150.484 main 1366 1366 __________P___ -1 9.65914 150.484 0 14 359
1984277N07151 1984 90 WP MM OGDEN 1984-10-04 09:00:00 NR 10.3497 150.500 main 1431 1431 __________P___ -1 10.3497 150.500 0 14 5
1984277N07151 1984 90 WP MM OGDEN 1984-10-04 12:00:00 NR 11.0000 150.600 main 1509 1509 __________O___ -1 11.0000 150.600 0 13 16
1984277N07151 1984 90 WP MM OGDEN 1984-10-04 15:00:00 NR 11.5540 150.845 main 1580 1580 __________P___ -1 11.5540 150.845 0 12 28
1984277N07151 1984 90 WP MM OGDEN 1984-10-04 18:00:00 NR 12.0554 151.169 main 1645 1645 __________P___ -1 12.0554 151.169 0 12 34
1984277N07151 1984 90 WP MM OGDEN 1984-10-04 21:00:00 NR 12.5041 151.508 main 1697 1697 __________P___ -1 12.5041 151.508 0 11 36
1984277N07151 1984 90 WP MM OGDEN 1984-10-05 00:00:00 NR 12.9000 151.800 main 1749 1749 __________O___ -1 12.9000 151.800 0 9 31
1984277N07151 1984 90 WP MM OGDEN 1984-10-05 03:00:00 NR 13.2501 151.962 main 1796 1796 __________P___ -1 13.2501 151.962 0 7 22
1984277N07151 1984 90 WP MM OGDEN 1984-10-05 06:00:00 NR 13.5522 152.068 main 1830 1830 __________P___ -1 13.5522 152.068 0 6 17
1984277N07151 1984 90 WP MM OGDEN 1984-10-05 09:00:00 NR 13.8283 152.140 main 1853 1853 __________P___ -1 13.8283 152.140 0 6 13
1984277N07151 1984 90 WP MM OGDEN 1984-10-05 12:00:00 NR 14.1000 152.200 main 1887 1887 __________O___ -1 14.1000 152.200 0 6 15
1984277N07151 1984 90 WP MM OGDEN 1984-10-05 15:00:00 NR 14.3878 152.294 main 1921 1921 __________P___ -1 14.3878 152.294 0 6 17
1984277N07151 1984 90 WP MM OGDEN 1984-10-05 18:00:00 NR 14.6775 152.380 main 1956 1956 __________P___ -1 14.6775 152.380 0 6 15
1984277N07151 1984 90 WP MM OGDEN 1984-10-05 21:00:00 NR 14.9784 152.451 main 1990 1990 __________P___ -1 14.9784 152.451 0 6 11
1984277N07151 1984 90 WP MM OGDEN 1984-10-06 00:00:00 NR 15.3000 152.500 main 2024 2024 __________O___ -1 15.3000 152.500 0 7 7
1984277N07151 1984 90 WP MM OGDEN 1984-10-06 03:00:00 NR 15.6615 152.530 main 2068 2068 __________P___ -1 15.6615 152.530 0 7 3
1984277N07151 1984 90 WP MM OGDEN 1984-10-06 06:00:00 NR 16.0425 152.538 main 2102 2102 __________P___ -1 16.0425 152.538 0 8 0
1984277N07151 1984 90 WP MM OGDEN 1984-10-06 09:00:00 NR 16.4272 152.527 main 2146 2146 __________P___ -1 16.4272 152.527 0 8 356
1984277N07151 1984 90 WP MM OGDEN 1984-10-06 12:00:00 NR 16.8000 152.500 main 2189 2189 __________O___ -1 16.8000 152.500 1 7 354
1984277N07151 1984 90 WP MM OGDEN 1984-10-06 15:00:00 NR 17.0988 152.460 main 2222 2222 __________P___ -1 17.0988 152.460 1 7 351
1984277N07151 1984 90 WP MM OGDEN 1984-10-06 18:00:00 TS 17.5121 152.386 main 2262 2259 __O_______P___ -1 18.0000 152.300 1 29 1000 17.3901 152.408 1 8 351
1984277N07151 1984 90 WP MM OGDEN 1984-10-06 21:00:00 TS 17.9109 152.316 main 2259 2221 __P_______P___ -1 18.3100 152.245 1 29 999 17.7113 152.351 1 8 352
1984277N07151 1984 90 WP MM OGDEN 1984-10-07 00:00:00 TS 18.3300 152.270 1000 tokyo main 2221 2177 OOOO______O___ jtwc_wp WP191984 18.1000 152.300 25 -1 18.5000 152.400 2 1000 0 0 0 18.6000 152.200 1 29 999 18.5000 152.200 TD 25 999 18.1000 152.300 1 25 8 353
1984277N07151 1984 90 WP MM OGDEN 1984-10-07 03:00:00 TS 18.7121 152.214 main 2177 2139 PPPP______P___ WP191984 18.5750 152.180 27 -1 18.6150 152.308 2 1000 0 0 18.8700 152.178 1 29 998 18.9375 152.247 TD 25 999 18.5584 152.205 1 26 9 355
1984277N07151 1984 90 WP MM OGDEN 1984-10-07 06:00:00 TS 19.1747 152.200 1000 tokyo main 2129 2077 OOOO______P___ jtwc_wp WP191984 19.1000 152.100 30 -1 19.0000 152.300 2 1000 0 0 0 19.2000 152.200 1 29 997 19.5000 152.300 TD 25 999 19.0923 152.126 1 27 11 2
1984277N07151 1984 90 WP MM OGDEN 1984-10-07 09:00:00 TS 19.8220 152.260 main 2077 2016 PPPP______P___ WP191984 19.7125 152.098 30 -1 19.8051 152.414 2 998 0 0 19.6251 152.307 1 29 997 20.2625 152.370 TD 27 999 19.7051 152.109 1 28 14 6
1984277N07151 1984 90 WP MM OGDEN 1984-10-07 12:00:00 TS 20.5600 152.360 996 tokyo main 2007 1951 OOOO______O___ jtwc_wp WP191984 20.4000 152.200 30 -1 20.7000 152.500 2 996 0 0 0 20.2000 152.400 1 29 997 21.1000 152.500 TD 30 999 20.4000 152.200 1 30 15 5
1984277N07151 1984 90 WP MM OGDEN 1984-10-07 15:00:00 TS 21.2672 152.403 main 1942 1890 PPPP______P___ WP191984 21.1049 152.383 32 -1 21.2419 152.233 2 995 0 0 20.9244 152.240 1 29 997 21.8649 152.713 TD 32 997 21.1996 152.446 1 33 15 9
1984277N07151 1984 90 WP MM OGDEN 1984-10-07 18:00:00 TS 22.0341 152.601 35 994 tokyo main 1890 1841 OOOO______P___ jtwc_wp WP191984 21.9000 152.700 35 0 21.8000 152.200 3 35 994 0 9 100 100 0 21.8000 152.300 1 29 997 22.6000 153.000 TS 35 996 22.0705 152.805 1 37 18 23
1984277N07151 1984 90 WP MM OGDEN 1984-10-07 21:00:00 TS 22.9070 153.165 main 1848 1811 PPPP______P___ WP191984 22.8427 153.169 40 0 22.6423 153.021 3 37 992 0 9 100 100 22.7944 153.086 1 33 993 23.2998 153.313 TS 37 994 22.9560 153.237 1 41 21 32
1984277N07151 1984 90 WP MM OGDEN 1984-10-08 00:00:00 TS 23.8000 153.820 40 990 tokyo main 1811 1775 OOOO______O___ jtwc_wp WP191984 23.8000 153.700 45 0 23.6000 154.000 3 40 990 0 9 100 100 0 23.8000 154.000 2 38 990 24.0000 153.700 TS 40 993 23.8000 153.700 2 45 20 30
1984277N07151 1984 90 WP MM OGDEN 1984-10-08 03:00:00 TS 24.6427 154.252 main 1782 1739 PPPP______P___ WP191984 24.6597 154.158 47 0 24.5939 154.427 3 45 987 0 9 125 125 24.6864 154.405 2 43 989 24.7575 154.170 TS 42 989 24.5162 154.099 2 47 18 25
1984277N07151 1984 90 WP MM OGDEN 1984-10-08 06:00:00 TS 25.4172 154.644 50 985 tokyo main 1739 1722 OOOO______P___ jtwc_wp WP191984 25.4000 154.600 50 0 25.5000 154.700 4 50 985 0 9 150 150 0 25.5000 154.700 3 48 988 25.5000 154.700 TS 45 986 25.1860 154.522 2 50 16 28
1984277N07151 1984 90 WP MM OGDEN 1984-10-08 09:00:00 TS 26.0829 155.101 main 1722 1714 PPPP______P___ WP191984 25.9722 155.036 52 0 26.1673 155.078 4 50 985 0 9 150 150 26.2799 155.170 3 48 987 26.1573 155.236 TS 45 985 25.8378 154.984 2 52 15 34
1984277N07151 1984 90 WP MM OGDEN 1984-10-08 12:00:00 TS 26.7000 155.600 50 985 tokyo main 1716 1709 OOOO______O___ jtwc_wp WP191984 26.5000 155.500 55 0 26.7000 155.500 4 50 985 0 9 150 150 0 27.0000 155.700 3 48 986 26.8000 155.800 TS 45 985 26.5000 155.500 2 55 15 36
1984277N07151 1984 90 WP MM OGDEN 1984-10-08 15:00:00 TS 27.3299 156.115 main 1713 1706 PPPP______P___ WP191984 27.1121 156.006 57 0 27.1544 155.942 4 50 985 0 9 150 150 27.6796 156.221 3 53 985 27.4998 156.393 TS 47 984 27.2036 156.013 2 58 16 37
1984277N07151 1984 90 WP MM OGDEN 1984-10-08 18:00:00 TS 27.9845 156.698 50 985 tokyo main 1716 1714 OOOO______P___ jtwc_wp WP191984 27.8000 156.600 60 0 27.7000 156.500 4 50 985 0 9 150 150 0 28.3000 156.800 3 58 984 28.2000 157.000 STS 50 984 27.9224 156.591 2 62 18 39
1984277N07151 1984 90 WP MM OGDEN 1984-10-08 21:00:00 TS 28.7044 157.353 main 1732 1726 PPPP______P___ WP191984 28.5841 157.269 65 1 28.5850 157.239 4 52 982 0 9 175 175 28.8412 157.413 3 63 983 28.8568 157.571 STS 52 983 28.6552 157.274 2 66 19 41
1984277N07151 1984 90 WP MM OGDEN 1984-10-09 00:00:00 MX 29.4400 158.140 55 980 tokyo main 1752 1752 OOOO______O___ jtwc_wp WP191984 29.4000 158.100 70 1 29.5000 158.100 4 55 980 9 50 50 9 200 200 0 29.4000 158.200 9 68 982 29.5000 158.200 STS 55 982 29.4000 158.100 3 70 21 46
1984277N07151 1984 90 WP MM OGDEN 1984-10-09 03:00:00 MX 30.1310 159.060 main 1803 1799 PPPP______P___ WP191984 30.1572 159.126 67 1 30.1357 158.928 4 60 980 9 62 62 9 250 200 30.0777 159.268 9 68 982 30.1405 158.883 STS 55 981 30.1440 159.094 3 68 22 52
1984277N07151 1984 90 WP MM OGDEN 1984-10-09 06:00:00 MX 30.8188 160.147 65 980 tokyo main 1860 1860 OOOO______P___ jtwc_wp WP191984 30.9000 160.300 65 1 30.7000 159.900 5 65 980 9 75 75 1 300 200 0 30.8000 160.500 9 68 982 30.8000 159.800 STS 55 980 30.8938 160.237 3 67 24 55
1984277N07151 1984 90 WP MM OGDEN 1984-10-09 09:00:00 MX 31.5167 161.382 main 1864 1854 PPPP______P___ WP191984 31.6490 161.514 65 1 31.3269 161.112 5 65 980 9 75 75 1 300 200 31.4758 161.708 9 63 983 31.4853 161.089 STS 55 980 31.6464 161.487 3 66 26 57
1984277N07151 1984 90 WP MM OGDEN 1984-10-09 12:00:00 MX 32.2316 162.737 65 980 tokyo main 1861 1855 OOOO______O___ jtwc_wp WP191984 32.4000 162.800 65 1 32.0000 162.500 5 65 980 9 75 75 8 300 200 0 32.2000 163.000 9 58 984 32.2000 162.600 STS 55 980 32.4000 162.800 4 65 27 58
1984277N07151 1984 90 WP MM OGDEN 1984-10-09 15:00:00 MX 32.9701 164.102 main 1861 1861 PPPP______P___ WP191984 33.1529 164.133 62 0 32.6930 163.879 5 62 982 9 67 67 8 300 225 33.0315 164.348 9 58 984 32.9169 164.080 STS 55 980 33.1474 164.087 4 62 29 58
1984277N07151 1984 90 WP MM OGDEN 1984-10-09 18:00:00 MX 33.7500 165.650 60 985 tokyo main 1879 1874 OOOO______O___ jtwc_wp WP191984 33.9000 165.500 60 0 33.5000 165.500 4 60 985 9 60 60 7 300 250 0 33.9000 165.900 9 58 985 33.7000 165.700 STS 55 980 33.9000 165.500 5 60 32 60
1984277N07151 1984 90 WP MM OGDEN 1984-10-09 21:00:00 MX 34.5665 167.492 main 1922 1922 _PPP______P___ WP191984 -1 34.4620 167.524 4 60 985 9 60 60 7 300 275 34.6354 167.690 9 58 985 34.5575 167.464 STS 52 982 34.6556 167.090 5 37 62
1984277N07151 1984 90 WP MM OGDEN 1984-10-10 00:00:00 MX 35.4917 169.617 60 985 tokyo main 1970 1969 _OOO______O___ -1 35.5000 169.800 4 60 985 9 60 60 9 300 300 0 35.5000 169.800 9 58 985 35.5000 169.500 STS 50 985 35.4000 168.800 5 42 62
1984277N07151 1984 90 WP MM OGDEN 1984-10-10 03:00:00 MX 36.5426 172.073 main 1997 1993 _PPP__________ -1 36.5354 172.136 4 57 985 9 60 60 9 300 300 36.6717 172.269 9 53 985 36.4852 171.913 STS 50 985 5 45 62
1984277N07151 1984 90 WP MM OGDEN 1984-10-10 06:00:00 MX 37.5625 174.562 55 985 tokyo main 2028 1960 _OOO__________ -1 37.5000 174.500 4 55 985 9 60 60 9 300 300 0 38.0000 175.000 9 48 985 37.5000 174.500 STS 50 985 42 65
1984277N07151 1984 90 WP MM OGDEN 1984-10-10 09:00:00 TS 38.3325 176.833 main 1956 1788 _P_P__________ -1 38.2427 176.741 4 988 9 9 9 38.5121 177.017 STS 50 985 39 66
1984277N07151 1984 90 WP MM OGDEN 1984-10-10 12:00:00 ET 39.1250 179.125 992 tokyo main 1784 1623 _O_O__________ -1 39.0000 179.000 6 992 0 0 0 39.5000 179.500 STS 50 985 39 66
1984277N07151 1984 90 EP CP OGDEN 1984-10-10 15:00:00 ET 39.9507 181.423 main 1609 1438 _P____________ -1 39.9507 -178.577 6 994 0 0 STS 42 63
1984277N07151 1984 90 EP CP OGDEN 1984-10-10 18:00:00 ET 41.0000 184.000 main 1424 _O____________ -1 41.0000 184.000 6 996 0 0 0 44 62

Digital Typhoon Data and Search

About IBTrACS Database

This database is a web-friendly format of International Best Track Archive for Climate Stewardship (IBTrACS), a global best track data archive curated by NOAA dating back to 1842.

Updated: 2021-10-25